Time;durP1;ratioP1;P1;durP2;ratioP2;P2;SDS_P1;SDS_P2;PMS_P1;PMS_P2;Temp;Humidity;BMP_temperature;BMP_pressure;BME280_temperature;BME280_humidity;BME280_pressure;Samples;Min_cycle;Max_cycle;Signal;HPM_P1;HPM_P2
2022/12/28 00:00:54;;;;;;;12.00;6.05;;;;;;;4.74;87.49;101378.15;1735239;81;25797;-76
2022/12/28 00:03:22;;;;;;;10.82;6.20;;;;;;;4.73;87.45;101377.81;1721765;81;25773;-76
2022/12/28 00:05:48;;;;;;;12.50;6.65;;;;;;;4.70;87.53;101386.36;1748788;80;25941;-75
2022/12/28 00:08:15;;;;;;;19.30;7.55;;;;;;;4.70;87.48;101383.70;1721759;82;27435;-75
2022/12/28 00:10:41;;;;;;;15.65;6.75;;;;;;;4.68;87.61;101382.99;1740268;81;26457;-76
2022/12/28 00:13:07;;;;;;;11.80;6.97;;;;;;;4.68;87.54;101379.52;1749020;80;25716;-75
2022/12/28 00:15:36;;;;;;;11.18;6.60;;;;;;;4.65;87.35;101385.08;1710611;82;25749;-76
2022/12/28 00:18:03;;;;;;;14.75;7.67;;;;;;;4.61;87.30;101381.85;1721035;81;26150;-76
2022/12/28 00:20:29;;;;;;;12.65;8.03;;;;;;;4.59;87.57;101378.48;1740154;80;27425;-76
2022/12/28 00:22:55;;;;;;;15.10;7.67;;;;;;;4.61;87.60;101379.67;1735921;81;26420;-75
2022/12/28 00:25:23;;;;;;;12.03;6.37;;;;;;;4.61;87.64;101379.20;1734258;81;25958;-76
2022/12/28 00:27:50;;;;;;;19.73;7.65;;;;;;;4.60;87.25;101380.63;1729193;81;25915;-76
2022/12/28 00:30:16;;;;;;;11.93;6.67;;;;;;;4.54;87.33;101385.13;1738067;81;25883;-75
2022/12/28 00:32:44;;;;;;;19.07;6.53;;;;;;;4.52;87.42;101381.77;1745563;81;27462;-76
2022/12/28 00:35:12;;;;;;;15.60;6.58;;;;;;;4.48;87.46;101375.89;1710897;83;26390;-76
2022/12/28 00:37:38;;;;;;;14.85;6.50;;;;;;;4.47;87.52;101380.01;1732029;82;25745;-76
2022/12/28 00:40:06;;;;;;;15.10;7.00;;;;;;;4.46;87.50;101379.16;1727054;82;25685;-76
2022/12/28 00:42:32;;;;;;;14.00;5.67;;;;;;;4.45;87.58;101379.27;1734079;82;26139;-76
2022/12/28 00:44:58;;;;;;;11.40;5.37;;;;;;;4.43;87.43;101387.36;1727354;81;28192;-76
2022/12/28 00:47:25;;;;;;;16.62;7.00;;;;;;;4.41;87.62;101382.67;1735316;82;25266;-76
2022/12/28 00:49:51;;;;;;;12.55;6.40;;;;;;;4.40;87.67;101378.36;1734959;82;25980;-75
2022/12/28 00:52:17;;;;;;;15.23;6.60;;;;;;;4.39;87.61;101388.59;1735660;82;26428;-75
2022/12/28 00:54:43;;;;;;;12.82;6.35;;;;;;;4.36;87.53;101385.36;1728177;82;25914;-76
2022/12/28 00:57:10;;;;;;;13.32;6.05;;;;;;;4.33;87.47;101381.63;1753479;80;27442;-76
2022/12/28 00:59:36;;;;;;;15.70;6.92;;;;;;;4.30;87.49;101382.72;1766662;80;25900;-75
2022/12/28 01:02:02;;;;;;;14.80;7.35;;;;;;;4.28;87.47;101382.01;1752305;80;26285;-76
2022/12/28 01:04:29;;;;;;;14.78;7.60;;;;;;;4.25;87.41;101382.28;1752781;81;26217;-75
2022/12/28 01:06:55;;;;;;;14.87;6.75;;;;;;;4.21;87.50;101382.66;1756806;80;25424;-76
2022/12/28 01:09:21;;;;;;;14.90;6.33;;;;;;;4.20;87.58;101378.31;1747661;80;28277;-76
2022/12/28 01:11:48;;;;;;;12.18;6.35;;;;;;;4.18;87.40;101374.94;1751500;81;25720;-76
2022/12/28 01:14:14;;;;;;;16.37;7.58;;;;;;;4.15;87.54;101380.01;1753998;80;26419;-75
2022/12/28 01:16:40;;;;;;;12.93;6.42;;;;;;;4.15;87.54;101376.55;1750175;80;26428;-76
2022/12/28 01:19:09;;;;;;;14.60;7.10;;;;;;;4.13;87.48;101387.76;1748008;80;25814;-76
2022/12/28 01:21:36;;;;;;;10.00;6.58;;;;;;;4.09;87.51;101385.82;1764123;80;27661;-76
2022/12/28 01:24:06;;;;;;;13.62;6.83;;;;;;;4.08;87.58;101384.63;1721598;80;26393;-76
2022/12/28 01:26:33;;;;;;;11.12;7.30;;;;;;;4.08;87.47;101384.63;1717411;81;25311;-76
2022/12/28 01:29:00;;;;;;;15.80;7.53;;;;;;;4.05;87.60;101383.06;1739770;82;26032;-76
2022/12/28 01:31:26;;;;;;;12.63;6.58;;;;;;;4.04;87.54;101382.73;1723960;81;25862;-76
2022/12/28 01:33:54;;;;;;;16.52;8.08;;;;;;;4.00;87.42;101375.97;1733123;80;27537;-76
2022/12/28 01:36:24;;;;;;;15.00;7.83;;;;;;;3.95;87.50;101372.87;1750118;80;25773;-76
2022/12/28 01:38:57;;;;;;;10.77;7.17;;;;;;;3.91;87.51;101369.61;1766280;80;25829;-75
2022/12/28 01:41:26;;;;;;;14.20;8.53;;;;;;;3.90;87.56;101366.62;1758217;80;25892;-76
2022/12/28 01:43:58;;;;;;;15.08;7.97;;;;;;;3.88;87.55;101364.58;1719809;81;25878;-76
2022/12/28 01:46:33;;;;;;;15.88;8.53;;;;;;;3.88;87.64;101365.05;1768845;80;27444;-76
2022/12/28 01:49:13;;;;;;;15.53;7.92;;;;;;;3.83;87.57;101368.08;1755950;80;25706;-76
2022/12/28 01:51:57;;;;;;;16.57;7.33;;;;;;;3.78;87.55;101361.00;1764073;80;25863;-75
2022/12/28 01:54:28;;;;;;;14.90;7.53;;;;;;;3.75;87.64;101357.74;1747085;80;26430;-76
2022/12/28 01:56:55;;;;;;;13.78;7.50;;;;;;;3.72;87.73;101360.15;1735624;80;26450;-75
2022/12/28 01:59:27;;;;;;;17.92;8.23;;;;;;;3.71;87.72;101362.46;1744776;80;27529;-76
2022/12/28 02:01:53;;;;;;;14.85;7.45;;;;;;;3.71;87.79;101358.48;1754131;80;25921;-76
2022/12/28 02:04:23;;;;;;;13.93;7.30;;;;;;;3.66;87.64;101359.80;1735841;81;25918;-76
2022/12/28 02:06:52;;;;;;;14.23;7.95;;;;;;;3.63;87.79;101358.27;1734860;81;26061;-76
2022/12/28 02:09:40;;;;;;;14.53;7.58;;;;;;;3.59;87.80;101356.80;1758070;80;25760;-76
2022/12/28 02:12:11;;;;;;;16.97;7.85;;;;;;;3.59;87.88;101354.66;1732747;80;27472;-75
2022/12/28 02:14:38;;;;;;;17.73;8.43;;;;;;;3.55;87.84;101349.26;1742818;81;26065;-75
2022/12/28 02:17:08;;;;;;;13.15;7.60;;;;;;;3.52;87.96;101344.19;1749277;81;25885;-76
2022/12/28 02:19:46;;;;;;;18.07;9.23;;;;;;;3.48;87.98;101342.28;1733606;80;25789;-75
2022/12/28 02:22:49;;;;;;;13.32;8.30;;;;;;;3.46;87.97;101340.72;1722522;81;25752;-76
2022/12/28 02:25:39;;;;;;;17.73;9.78;;;;;;;3.43;88.08;101332.53;1756627;80;28274;-76
2022/12/28 02:28:59;;;;;;;19.10;8.13;;;;;;;3.43;88.17;101331.21;1748331;80;25952;-75
2022/12/28 02:31:36;;;;;;;16.25;8.33;;;;;;;3.39;88.19;101324.95;1749443;80;25823;-75
2022/12/28 02:34:25;;;;;;;16.40;8.65;;;;;;;3.34;88.13;101323.14;1748161;80;25952;-76
2022/12/28 02:36:59;;;;;;;22.30;9.38;;;;;;;3.35;88.29;101326.17;1767597;80;26118;-76
2022/12/28 02:39:43;;;;;;;18.90;8.85;;;;;;;3.29;88.17;101319.57;1752292;80;28266;-76
2022/12/28 02:42:10;;;;;;;20.08;9.93;;;;;;;3.28;88.22;101323.64;1751058;80;25992;-76
2022/12/28 02:50:12;;;;;;;15.25;9.05;;;;;;;3.15;88.30;101333.05;1753925;81;25755;-76
2022/12/28 02:52:56;;;;;;;17.50;8.75;;;;;;;3.12;88.37;101328.83;1754630;81;27499;-76
2022/12/28 02:56:06;;;;;;;17.37;8.50;;;;;;;3.07;88.35;101328.84;1752007;81;26076;-76
2022/12/28 02:58:55;;;;;;;25.88;8.53;;;;;;;3.06;88.52;101330.64;1755720;80;25803;-75
2022/12/28 03:01:33;;;;;;;22.95;9.48;;;;;;;3.01;88.51;101329.33;1721851;80;26421;-75
2022/12/28 03:04:10;;;;;;;16.42;10.45;;;;;;;2.97;88.69;101325.25;1753400;80;25926;-76
2022/12/28 03:10:19;;;;;;;16.40;9.00;;;;;;;2.96;88.78;101324.87;1751828;80;25740;-76
2022/12/28 03:12:50;;;;;;;18.80;8.90;;;;;;;2.93;88.76;101319.84;1750190;80;26494;-76
2022/12/28 03:15:29;;;;;;;19.00;9.05;;;;;;;2.92;88.82;101318.14;1740974;81;26242;-75
2022/12/28 03:32:06;;;;;;;15.58;8.15;;;;;;;2.77;88.88;101302.99;1747813;80;26444;-76
2022/12/28 03:34:33;;;;;;;14.70;8.75;;;;;;;2.74;88.86;101297.92;1726454;81;28225;-76
2022/12/28 03:37:24;;;;;;;19.77;8.13;;;;;;;2.74;89.03;101295.75;1752015;80;25704;-76
2022/12/28 03:40:15;;;;;;;16.00;8.28;;;;;;;2.74;89.03;101287.34;1722933;81;26446;-76
2022/12/28 03:45:54;;;;;;;14.53;8.18;;;;;;;2.73;89.06;101280.39;1756342;81;25317;-76
2022/12/28 03:48:23;;;;;;;17.48;8.43;;;;;;;2.73;88.93;101272.45;1740926;81;27627;-76
2022/12/28 03:50:52;;;;;;;16.37;8.23;;;;;;;2.72;88.90;101274.72;1724367;81;25856;-75
2022/12/28 03:53:24;;;;;;;17.30;10.27;;;;;;;2.72;88.83;101265.94;1752915;80;25472;-75
2022/12/28 03:55:52;;;;;;;15.15;8.85;;;;;;;2.69;88.65;101262.23;1753627;80;25705;-75
2022/12/28 03:58:21;;;;;;;13.78;8.30;;;;;;;2.67;88.77;101262.83;1751748;80;26478;-75
2022/12/28 04:00:48;;;;;;;15.13;9.15;;;;;;;2.68;88.78;101261.85;1758882;80;27462;-76
2022/12/28 04:03:16;;;;;;;16.52;9.03;;;;;;;2.66;88.71;101260.66;1729996;80;25750;-75
2022/12/28 04:05:43;;;;;;;17.15;7.53;;;;;;;2.68;88.62;101270.64;1750875;80;25806;-75
2022/12/28 04:08:09;;;;;;;11.93;7.55;;;;;;;2.67;88.53;101270.30;1752806;80;25883;-75
2022/12/28 04:10:36;;;;;;;11.85;7.65;;;;;;;2.66;88.44;101273.03;1758016;80;25803;-76
2022/12/28 04:13:02;;;;;;;15.35;7.87;;;;;;;2.64;88.46;101269.20;1756553;80;28360;-76
2022/12/28 04:15:30;;;;;;;16.15;8.53;;;;;;;2.63;88.53;101259.56;1751814;81;26192;-75
2022/12/28 04:18:00;;;;;;;16.65;8.13;;;;;;;2.64;88.53;101260.41;1731027;80;25949;-75
2022/12/28 04:20:27;;;;;;;14.80;8.63;;;;;;;2.62;88.53;101263.19;1758481;80;26369;-75
2022/12/28 04:22:53;;;;;;;17.77;8.33;;;;;;;2.62;88.64;101253.93;1752239;80;25827;-76
2022/12/28 04:25:19;;;;;;;19.05;9.40;;;;;;;2.62;88.63;101249.97;1753652;80;28877;-76
2022/12/28 04:27:47;;;;;;;15.03;8.05;;;;;;;2.60;88.76;101261.62;1756553;80;25907;-76
2022/12/28 04:30:15;;;;;;;21.62;8.40;;;;;;;2.60;88.73;101268.23;1749260;81;26564;-76
2022/12/28 04:32:41;;;;;;;17.40;8.98;;;;;;;2.59;88.73;101259.95;1756674;80;26206;-75
2022/12/28 04:35:08;;;;;;;22.17;8.85;;;;;;;2.58;88.79;101260.90;1756490;80;26025;-75
2022/12/28 04:37:36;;;;;;;17.77;9.50;;;;;;;2.56;88.72;101258.86;1755993;80;27472;-75
2022/12/28 04:40:04;;;;;;;18.67;9.15;;;;;;;2.54;88.84;101260.30;1756237;80;25871;-76
2022/12/28 04:42:31;;;;;;;17.15;9.38;;;;;;;2.56;88.78;101257.53;1752052;80;25893;-75
2022/12/28 04:44:57;;;;;;;15.85;7.78;;;;;;;2.54;88.78;101253.70;1751660;80;25686;-76
2022/12/28 04:47:24;;;;;;;17.80;9.50;;;;;;;2.51;88.70;101251.75;1754608;80;25937;-76
2022/12/28 04:49:50;;;;;;;13.70;8.93;;;;;;;2.46;88.82;101242.03;1751654;80;27276;-76
2022/12/28 04:52:16;;;;;;;17.32;8.93;;;;;;;2.46;88.87;101240.20;1753820;80;25758;-76
2022/12/28 04:54:44;;;;;;;16.50;9.50;;;;;;;2.48;88.94;101241.43;1755034;80;26148;-76
2022/12/28 04:57:11;;;;;;;17.98;9.35;;;;;;;2.51;88.98;101241.17;1771216;80;26302;-75
2022/12/28 04:59:39;;;;;;;17.25;10.38;;;;;;;2.49;88.93;101239.98;1769020;80;26350;-75
2022/12/28 05:02:06;;;;;;;16.52;10.13;;;;;;;2.47;88.92;101237.94;1756383;80;27483;-76
2022/12/28 05:04:33;;;;;;;21.37;10.10;;;;;;;2.47;89.01;101233.13;1757799;80;25771;-76
2022/12/28 05:06:59;;;;;;;22.77;11.48;;;;;;;2.46;88.98;101244.17;1768031;80;25826;-75
2022/12/28 05:09:25;;;;;;;17.55;10.55;;;;;;;2.45;89.11;101239.02;1757127;80;26424;-76
2022/12/28 05:11:52;;;;;;;23.02;11.78;;;;;;;2.47;88.98;101234.44;1765163;80;26368;-75
2022/12/28 05:14:18;;;;;;;27.30;12.25;;;;;;;2.43;88.94;101228.56;1729274;81;27438;-76
2022/12/28 05:16:44;;;;;;;23.10;11.73;;;;;;;2.40;88.90;101228.79;1768523;80;26405;-75
2022/12/28 05:19:11;;;;;;;22.73;11.00;;;;;;;2.40;88.89;101234.55;1752478;80;25858;-75
2022/12/28 05:21:37;;;;;;;20.77;10.80;;;;;;;2.34;88.90;101223.52;1768279;80;25838;-76
2022/12/28 05:24:04;;;;;;;18.90;11.20;;;;;;;2.33;88.94;101218.35;1769477;80;25706;-76
2022/12/28 05:26:30;;;;;;;21.57;11.57;;;;;;;2.34;88.97;101219.55;1733871;82;27465;-75
2022/12/28 05:28:57;;;;;;;23.50;11.90;;;;;;;2.32;88.96;101217.51;1770174;80;25865;-75
2022/12/28 05:31:24;;;;;;;21.12;11.57;;;;;;;2.32;89.03;101220.15;1727914;82;26251;-76
2022/12/28 05:33:54;;;;;;;20.12;11.15;;;;;;;2.31;88.99;101217.13;1729420;80;25888;-76
2022/12/28 05:36:25;;;;;;;24.27;11.73;;;;;;;2.32;89.10;101217.98;1753685;81;25708;-75
2022/12/28 05:38:53;;;;;;;23.00;12.63;;;;;;;2.30;88.98;101222.07;1726251;82;27973;-76
2022/12/28 05:41:26;;;;;;;21.65;12.23;;;;;;;2.29;89.10;101216.88;1740675;81;25902;-75
2022/12/28 05:43:53;;;;;;;21.05;12.10;;;;;;;2.30;89.10;101215.46;1757117;80;25804;-75
2022/12/28 05:46:27;;;;;;;27.32;13.40;;;;;;;2.27;89.07;101214.84;1728406;81;25768;-76
2022/12/28 05:48:54;;;;;;;19.82;11.53;;;;;;;2.26;89.09;101217.14;1728728;80;25798;-76
2022/12/28 05:51:25;;;;;;;22.87;12.63;;;;;;;2.25;89.09;101208.36;1754882;81;27640;-76
2022/12/28 05:53:52;;;;;;;21.20;12.05;;;;;;;2.22;89.03;101209.09;1743711;80;44446;-75
2022/12/28 05:56:23;;;;;;;23.85;12.20;;;;;;;2.18;89.04;101212.93;1769772;79;26351;-75
2022/12/28 05:59:05;;;;;;;19.35;11.83;;;;;;;2.17;89.21;101204.16;1762163;79;25865;-76
2022/12/28 06:01:36;;;;;;;23.77;12.05;;;;;;;2.16;89.22;101194.53;1763930;80;25807;-76
2022/12/28 06:04:06;;;;;;;23.30;12.60;;;;;;;2.15;89.30;101189.37;1767288;80;27454;-76
2022/12/28 06:06:34;;;;;;;25.17;12.60;;;;;;;2.14;89.31;101195.12;1728858;80;25777;-76
2022/12/28 06:09:01;;;;;;;23.05;11.68;;;;;;;2.11;89.29;101197.17;1728580;80;25879;-76
2022/12/28 06:11:29;;;;;;;22.42;11.65;;;;;;;2.10;89.43;101203.41;1730603;80;25832;-76
2022/12/28 06:13:57;;;;;;;20.08;12.20;;;;;;;2.05;89.54;101201.11;1728514;80;25805;-76
2022/12/28 06:16:28;;;;;;;21.10;12.07;;;;;;;2.04;89.57;101190.20;1729469;80;27415;-75
2022/12/28 06:18:55;;;;;;;25.00;12.88;;;;;;;2.01;89.61;101194.38;1729220;80;25901;-75
2022/12/28 06:21:28;;;;;;;22.05;11.65;;;;;;;1.97;89.72;101182.84;1749929;81;26629;-75
2022/12/28 06:23:57;;;;;;;22.62;11.48;;;;;;;1.95;89.81;101185.61;1753402;80;26254;-74
2022/12/28 06:26:27;;;;;;;25.02;11.83;;;;;;;1.95;89.91;101182.13;1752385;80;25765;-75
2022/12/28 06:28:53;;;;;;;22.05;12.25;;;;;;;1.94;90.03;101179.13;1769836;80;27628;-75
2022/12/28 06:31:27;;;;;;;24.77;12.23;;;;;;;1.94;90.05;101176.49;1743526;81;25753;-75
2022/12/28 06:33:57;;;;;;;24.15;11.33;;;;;;;1.95;90.24;101180.33;1742038;81;25838;-75
2022/12/28 06:36:27;;;;;;;25.17;12.80;;;;;;;1.97;90.37;101182.84;1766580;80;25703;-75
2022/12/28 06:38:56;;;;;;;25.57;12.55;;;;;;;1.96;90.48;101183.34;1752943;81;29741;-75
2022/12/28 06:41:25;;;;;;;21.90;12.23;;;;;;;1.97;90.51;101184.16;1750079;81;27527;-75
2022/12/28 06:43:51;;;;;;;22.45;12.20;;;;;;;1.95;90.55;101186.93;1757643;80;25755;-75
2022/12/28 06:46:20;;;;;;;25.20;12.90;;;;;;;1.94;90.57;101190.55;1767777;79;25772;-75
2022/12/28 06:48:47;;;;;;;22.37;11.83;;;;;;;1.94;90.63;101181.77;1745837;81;25871;-75
2022/12/28 06:51:17;;;;;;;20.77;12.10;;;;;;;1.93;90.69;101180.08;1750632;80;25920;-75
2022/12/28 06:53:46;;;;;;;21.30;11.65;;;;;;;1.93;90.77;101180.08;1730900;82;27692;-76
2022/12/28 06:56:17;;;;;;;23.35;12.28;;;;;;;1.96;90.84;101182.50;1724108;82;26488;-75
2022/12/28 06:58:45;;;;;;;20.12;11.12;;;;;;;1.94;90.87;101179.98;1728170;81;26617;-75
2022/12/28 07:01:20;;;;;;;24.07;13.22;;;;;;;1.95;90.90;101173.72;1731405;81;26239;-75
2022/12/28 07:03:49;;;;;;;23.50;12.98;;;;;;;1.95;90.88;101165.80;1740943;81;25961;-75
2022/12/28 07:06:18;;;;;;;24.02;14.68;;;;;;;1.95;90.92;101166.27;1768475;80;28330;-75
2022/12/28 07:08:45;;;;;;;25.70;14.83;;;;;;;1.97;90.97;101164.35;1762682;80;26420;-81
2022/12/28 07:11:17;;;;;;;27.27;13.83;;;;;;;1.98;91.02;101154.16;1772062;80;25821;-83
2022/12/28 07:13:43;;;;;;;21.20;12.68;;;;;;;1.99;91.02;101152.71;1732565;81;25833;-83
2022/12/28 07:16:17;;;;;;;23.87;12.58;;;;;;;1.99;91.06;101154.03;1763791;80;26666;-82
2022/12/28 07:18:44;;;;;;;22.73;11.90;;;;;;;1.99;91.10;101152.71;1773641;79;27530;-82
2022/12/28 07:21:15;;;;;;;18.92;11.25;;;;;;;2.00;91.20;101155.73;1770616;80;25901;-82
2022/12/28 07:23:42;;;;;;;21.95;11.43;;;;;;;2.00;91.23;101146.48;1760597;80;25951;-79
2022/12/28 07:26:13;;;;;;;21.25;10.15;;;;;;;2.01;91.35;101149.47;1751813;80;26303;-81
2022/12/28 07:28:43;;;;;;;18.02;10.90;;;;;;;2.03;91.39;101154.66;1749094;80;25588;-76
2022/12/28 07:31:15;;;;;;;18.20;11.33;;;;;;;2.03;91.44;101154.16;1730305;80;27443;-76
2022/12/28 07:33:42;;;;;;;17.67;10.75;;;;;;;2.03;91.51;101152.02;1730613;81;26659;-76
2022/12/28 07:36:12;;;;;;;19.48;11.22;;;;;;;2.08;91.61;101147.19;1756954;80;25824;-77
2022/12/28 07:38:39;;;;;;;24.03;11.60;;;;;;;2.08;91.64;101147.19;1773634;80;25952;-78
2022/12/28 07:41:13;;;;;;;20.65;11.53;;;;;;;2.11;91.75;101146.97;1744455;80;25977;-78
2022/12/28 07:43:39;;;;;;;21.80;10.53;;;;;;;2.13;91.77;101149.02;1761625;80;28266;-79
2022/12/28 07:46:13;;;;;;;20.17;12.80;;;;;;;2.14;92.07;101150.20;1763034;80;25945;-78
2022/12/28 07:48:41;;;;;;;45.83;26.20;;;;;;;2.19;91.99;101154.66;1767277;79;26588;-78
2022/12/28 07:51:21;;;;;;;29.67;16.52;;;;;;;2.21;91.91;101141.31;1752423;81;25622;-79
2022/12/28 07:53:50;;;;;;;25.12;14.87;;;;;;;2.20;91.86;101137.83;1742257;81;25741;-83
2022/12/28 07:56:18;;;;;;;25.57;14.23;;;;;;;2.21;92.04;101144.80;1764712;80;27445;-82
2022/12/28 07:58:49;;;;;;;21.33;12.03;;;;;;;2.25;92.09;101143.60;1735845;80;25607;-81
2022/12/28 08:01:19;;;;;;;21.68;13.85;;;;;;;2.28;92.14;101142.52;1753893;80;26348;-82
2022/12/28 08:03:45;;;;;;;23.80;13.60;;;;;;;2.30;92.18;101143.25;1754276;81;25848;-82
2022/12/28 08:06:19;;;;;;;20.62;10.95;;;;;;;2.31;92.19;101141.80;1760232;80;25311;-82
2022/12/28 08:11:26;;;;;;;20.62;11.63;;;;;;;2.39;92.33;101135.07;1783619;79;26450;-84
2022/12/28 08:13:54;;;;;;;18.90;11.35;;;;;;;2.38;92.42;101138.66;1751059;81;25835;-82
2022/12/28 08:16:23;;;;;;;17.73;11.22;;;;;;;2.39;92.43;101136.39;1742259;81;27445;-82
2022/12/28 08:18:50;;;;;;;17.20;10.53;;;;;;;2.42;92.53;101138.80;1777655;80;25566;-82
2022/12/28 08:21:21;;;;;;;19.40;10.45;;;;;;;2.47;92.63;101141.43;1746354;81;25758;-85
2022/12/28 08:23:48;;;;;;;19.05;11.80;;;;;;;2.53;92.69;101140.09;1766930;79;25669;-84
2022/12/28 08:26:24;;;;;;;20.27;12.13;;;;;;;2.55;92.68;101136.84;1752656;81;25761;-84
2022/12/28 08:28:55;;;;;;;19.95;10.82;;;;;;;2.57;92.66;101142.84;1756727;79;27500;-83
2022/12/28 08:31:26;;;;;;;23.65;11.65;;;;;;;2.61;92.79;101136.38;1759516;81;25489;-83
2022/12/28 08:33:56;;;;;;;27.52;11.75;;;;;;;2.63;92.78;101130.48;1752394;81;25760;-83
2022/12/28 08:36:22;;;;;;;18.20;12.25;;;;;;;2.66;92.83;101129.73;1752498;81;25943;-83
2022/12/28 08:38:49;;;;;;;22.48;11.88;;;;;;;2.70;92.94;101133.81;1755450;81;25828;-80
2022/12/28 08:41:22;;;;;;;20.82;12.85;;;;;;;2.75;92.98;101128.16;1744742;81;28871;-75
2022/12/28 08:43:49;;;;;;;24.67;14.78;;;;;;;2.78;92.96;101123.45;1744609;81;26388;-80
2022/12/28 08:46:19;;;;;;;22.48;13.18;;;;;;;2.82;92.98;101132.00;1755244;81;26005;-81
2022/12/28 08:48:47;;;;;;;19.55;12.33;;;;;;;2.85;92.94;101139.67;1759947;81;26399;-75
2022/12/28 08:51:17;;;;;;;16.75;11.48;;;;;;;2.88;92.88;101130.17;1757908;81;25356;-87
2022/12/28 08:53:44;;;;;;;21.73;14.23;;;;;;;2.91;92.94;101132.55;1737912;81;27609;-85
2022/12/28 08:56:20;;;;;;;23.07;12.82;;;;;;;2.94;92.99;101127.02;1736006;81;25836;-82
2022/12/28 08:58:49;;;;;;;18.15;10.63;;;;;;;2.97;92.98;101126.28;1748402;81;26099;-84
2022/12/28 09:01:19;;;;;;;21.75;11.95;;;;;;;3.04;93.09;101129.27;1744841;81;25518;-81
2022/12/28 09:03:49;;;;;;;19.42;12.30;;;;;;;3.08;93.06;101122.75;1747265;81;25822;-81
2022/12/28 09:06:20;;;;;;;19.75;11.38;;;;;;;3.11;92.97;101127.33;1742634;81;27647;-83
2022/12/28 09:08:51;;;;;;;20.20;11.50;;;;;;;3.15;92.96;101129.23;1759074;79;26335;-81
2022/12/28 09:11:18;;;;;;;19.00;12.13;;;;;;;3.19;92.85;101133.30;1753192;81;25831;-81
2022/12/28 09:13:45;;;;;;;18.95;11.35;;;;;;;3.22;92.96;101128.24;1728563;81;25816;-80
2022/12/28 09:16:15;;;;;;;18.80;10.88;;;;;;;3.25;92.78;101126.67;1742286;79;25842;-82
2022/12/28 09:18:46;;;;;;;20.08;11.60;;;;;;;3.28;92.78;101118.46;1758230;79;28305;-89
2022/12/28 09:21:17;;;;;;;21.07;12.73;;;;;;;3.33;92.82;101109.66;1747910;81;25753;-81
2022/12/28 09:23:45;;;;;;;16.85;11.48;;;;;;;3.38;92.76;101110.12;1757250;79;26526;-84
2022/12/28 09:26:18;;;;;;;19.92;12.93;;;;;;;3.42;92.54;101102.28;1755445;79;26402;-81
2022/12/28 09:28:49;;;;;;;21.97;12.80;;;;;;;3.44;92.41;101095.05;1746240;79;25561;-82
2022/12/28 09:31:17;;;;;;;27.60;12.40;;;;;;;3.45;92.38;101093.58;1750687;81;27445;-81
2022/12/28 09:34:03;;;;;;;27.42;11.95;;;;;;;3.48;92.39;101088.52;1736902;81;25895;-81
2022/12/28 09:36:37;;;;;;;20.97;12.53;;;;;;;3.51;92.29;101090.89;1748895;81;25937;-83
2022/12/28 09:39:12;;;;;;;23.02;14.15;;;;;;;3.52;92.29;101083.31;1762104;81;25552;-83
2022/12/28 09:42:15;;;;;;;18.30;12.40;;;;;;;3.55;92.28;101080.42;1741359;81;26119;-83
2022/12/28 09:44:59;;;;;;;19.75;11.70;;;;;;;3.59;92.27;101076.03;1753775;80;28260;-84
2022/12/28 09:47:44;;;;;;;25.82;12.07;;;;;;;3.63;92.18;101070.85;1736118;79;25947;-87
2022/12/28 09:50:24;;;;;;;20.50;11.63;;;;;;;3.66;91.98;101072.38;1740457;80;25758;-83
2022/12/28 09:53:25;;;;;;;25.20;11.30;;;;;;;3.70;92.01;101060.57;1757612;80;25795;-83
2022/12/28 09:56:06;;;;;;;22.58;11.15;;;;;;;3.74;91.83;101058.82;1745568;80;25840;-81
2022/12/28 09:58:37;;;;;;;21.65;10.70;;;;;;;3.79;91.93;101054.45;1729899;81;27542;-81
2022/12/28 10:01:03;;;;;;;;;;;;;;;3.83;91.75;101059.36;1731288;81;25624;-81
2022/12/28 10:03:40;;;;;;;19.10;9.75;;;;;;;3.88;91.67;101048.37;1742522;81;25781;-81
2022/12/28 10:06:22;;;;;;;17.48;10.25;;;;;;;3.90;91.57;101053.05;1751600;79;25560;-81
2022/12/28 10:08:53;;;;;;;22.62;10.53;;;;;;;3.93;91.33;101055.45;1738124;80;25860;-77
2022/12/28 10:11:28;;;;;;;;;;;;;;;3.97;91.46;101044.93;1751612;81;27447;-86
2022/12/28 10:13:58;;;;;;;23.95;14.70;;;;;;;4.03;91.13;101038.24;1744567;80;26172;-82
2022/12/28 10:16:30;;;;;;;20.55;11.05;;;;;;;4.01;90.91;101030.43;1725318;81;25802;-80
2022/12/28 10:18:57;;;;;;;25.30;17.67;;;;;;;4.05;90.96;101024.36;1737755;80;25952;-81
2022/12/28 10:21:29;;;;;;;24.82;15.95;;;;;;;4.09;91.09;101012.03;1738872;81;25970;-82
2022/12/28 10:23:56;;;;;;;22.75;12.55;;;;;;;4.12;90.89;101009.61;1753273;81;27425;-83
2022/12/28 10:26:25;;;;;;;29.10;18.48;;;;;;;4.17;90.97;101008.21;1750723;81;25949;-84
2022/12/28 10:28:58;;;;;;;24.52;14.53;;;;;;;4.19;90.75;100994.84;1745686;81;26411;-86
2022/12/28 10:31:35;;;;;;;24.63;15.23;;;;;;;4.21;90.44;100994.22;1745376;80;25963;-81
2022/12/28 10:34:11;;;;;;;22.77;11.22;;;;;;;4.22;90.34;100987.45;1750350;80;25906;-77
2022/12/28 10:36:38;;;;;;;21.15;13.80;;;;;;;4.23;90.23;100975.03;1719392;81;29392;-76
2022/12/28 10:39:09;;;;;;;20.65;10.70;;;;;;;4.26;90.26;100978.72;1717419;82;26485;-76
2022/12/28 10:41:37;;;;;;;17.15;9.30;;;;;;;4.29;90.12;100968.69;1721581;82;25888;-76
2022/12/28 10:44:24;;;;;;;20.77;10.23;;;;;;;4.30;90.04;100961.08;1717031;82;25948;-76
2022/12/28 10:47:04;;;;;;;29.02;21.23;;;;;;;4.33;89.83;100958.64;1714127;82;25758;-76
2022/12/28 10:49:36;;;;;;;22.48;11.33;;;;;;;4.34;89.60;100946.55;1721163;82;27428;-76
2022/12/28 10:52:16;;;;;;;20.72;10.25;;;;;;;4.37;89.68;100936.17;1741034;81;25812;-76
2022/12/28 10:54:43;;;;;;;21.15;9.88;;;;;;;4.38;89.62;100934.72;1735408;82;25846;-77
2022/12/28 10:57:27;;;;;;;15.43;8.93;;;;;;;4.39;89.24;100921.80;1719617;82;25778;-78
2022/12/28 11:00:13;;;;;;;22.22;9.93;;;;;;;4.41;89.25;100920.32;1754252;80;25823;-77
2022/12/28 11:02:39;;;;;;;19.12;11.73;;;;;;;4.43;89.18;100917.88;1721221;81;27462;-77
2022/12/28 11:05:06;;;;;;;17.23;10.55;;;;;;;4.45;89.47;100923.88;1731196;81;25346;-77
2022/12/28 11:07:40;;;;;;;20.88;9.78;;;;;;;4.50;89.47;100926.13;1747984;81;25652;-77
2022/12/28 11:10:28;;;;;;;18.32;9.33;;;;;;;4.51;88.70;100929.14;1737331;80;26500;-77
2022/12/28 11:12:57;;;;;;;23.57;15.10;;;;;;;4.52;88.75;100931.64;1771747;79;25859;-77
2022/12/28 11:15:32;;;;;;;19.40;11.27;;;;;;;4.54;88.64;100924.86;1760038;79;28364;-77
2022/12/28 11:18:03;;;;;;;18.45;10.55;;;;;;;4.56;88.58;100930.38;1782020;79;25889;-77
2022/12/28 11:20:37;;;;;;;16.85;8.80;;;;;;;4.56;88.21;100925.08;1751405;81;25790;-77
2022/12/28 11:23:07;;;;;;;29.82;18.67;;;;;;;4.58;88.23;100928.42;1742121;81;25958;-77
2022/12/28 11:25:36;;;;;;;22.07;11.28;;;;;;;4.61;88.17;100915.37;1743541;81;25943;-77
2022/12/28 11:28:17;;;;;;;19.75;11.40;;;;;;;4.61;88.27;100906.93;1771522;79;28116;-77
2022/12/28 11:30:43;;;;;;;;;;;;;;;4.66;88.01;100913.14;1772653;80;25942;-77
2022/12/28 11:33:36;;;;;;;23.50;10.95;;;;;;;4.64;87.43;100900.52;1774028;80;26385;-77
2022/12/28 11:36:03;;;;;;;35.33;20.12;;;;;;;4.62;87.80;100901.11;1772915;79;26221;-77
2022/12/28 11:38:45;;;;;;;38.28;33.13;;;;;;;4.64;87.76;100894.69;1748468;80;25932;-77
2022/12/28 11:41:29;;;;;;;21.23;12.68;;;;;;;4.66;87.76;100890.59;1735189;80;27492;-76
2022/12/28 11:44:03;;;;;;;18.48;10.32;;;;;;;4.69;87.81;100889.81;1747086;80;25845;-76
2022/12/28 11:46:36;;;;;;;19.70;11.33;;;;;;;4.68;87.45;100878.02;1752013;80;25792;-78
2022/12/28 11:49:29;;;;;;;19.37;9.70;;;;;;;4.69;87.28;100873.05;1755958;80;25966;-79
2022/12/28 11:52:22;;;;;;;19.37;10.70;;;;;;;4.71;87.48;100869.75;1750073;80;25633;-76
2022/12/28 11:54:59;;;;;;;21.23;11.03;;;;;;;4.75;87.51;100863.18;1753582;80;27699;-77
2022/12/28 11:57:42;;;;;;;17.37;9.68;;;;;;;4.77;87.33;100862.55;1745921;79;26520;-76
2022/12/28 12:00:20;;;;;;;18.95;10.68;;;;;;;4.80;87.30;100856.12;1732836;81;26483;-76
2022/12/28 12:02:50;;;;;;;20.23;10.40;;;;;;;4.81;87.23;100842.73;1754984;79;25336;-76
2022/12/28 12:05:41;;;;;;;21.02;10.18;;;;;;;4.83;87.00;100837.27;1740555;79;26265;-76
2022/12/28 12:08:18;;;;;;;20.20;10.40;;;;;;;4.83;86.92;100834.62;1755838;81;27457;-76
2022/12/28 12:10:47;;;;;;;14.78;8.85;;;;;;;4.84;87.04;100828.31;1743558;81;25888;-76